Flight Track Log - Related Links

Times and Time Zones

All times are in EDT time to prevent confusion due to time zone crossing. See the UPS1121 flight status page for this flight to view local times or setup timezone preferences in your user account.

Time Position Orientation Groundspeed Altitude Reporting Facility
EDT Latitude Longitude Course Direction KTS MPH feet Rate Location/Type
Tue 08:40:37 PM 42.7319 -73.8081 173° South 152 175 1,800  Level Boston Center
Tue 08:41:01 PM 42.7131 -73.8050 173° South 173 199 2,700 2,047 Climbing Boston Center
Tue 08:42:02 PM 42.6572 -73.7756 159° South 237 273 4,700 2,557 Climbing Boston Center
Tue 08:42:56 PM 42.6228 -73.7014 122° Southeast 275 316 7,600 3,211 Climbing Boston Center
Tue 08:43:56 PM 42.5736 -73.6072 125° Southeast 298 343 10,800 2,292 Climbing Boston Center
Tue 08:44:25 PM 42.5469 -73.5589 127° Southeast 325 374 11,000 200 Climbing Boston Center
Tue 08:44:56 PM 42.5206 -73.5019 122° Southeast 322 371 11,000  Level Boston Center
Tue 08:45:13 PM 42.5042 -73.4736 128° Southeast 355 409 11,000  Level Boston Center
Tue 08:45:56 PM 42.4547 -73.3939 130° Southeast 357 411 11,000  Level Boston Center
Tue 08:46:20 PM 42.4258 -73.3597 139° Southeast 359 413 11,000  Level Boston Center
Tue 08:46:56 PM 42.3889 -73.3058 133° Southeast 351 404 11,000  Level Boston Center
Tue 08:47:21 PM 42.3639 -73.2719 135° Southeast 322 371 11,000  Level Boston Center
Tue 08:47:55 PM 42.3414 -73.2236 122° Southeast 319 367 11,000 -100 Level Boston Center
Tue 08:48:21 PM 42.3189 -73.1728 121° Southeast 313 360 10,900 -1,103 Descending Boston Center
Tue 08:49:22 PM 42.2819 -73.0714 116° Southeast 306 352 9,400 -1,485 Descending Boston Center
Tue 08:49:58 PM 42.2572 -73.0094 118° Southeast 299 344 8,500 -1,670 Descending Boston Center
Tue 08:50:59 PM 42.2181 -72.9139 119° Southeast 295 339 6,700 -1,603 Descending Boston Center
Tue 08:51:54 PM 42.1683 -72.8433 134° Southeast 289 333 5,400 -879 Descending Boston Center
Tue 08:52:55 PM 42.1103 -72.7675 136° Southeast 280 322 5,000 -197 Descending Boston Center
Tue 08:53:56 PM 42.0519 -72.6917 136° Southeast 280 322 5,000  Level Boston Center
Tue 08:55:14 PM 41.9833 -72.5992 135° Southeast 248 285 5,000 -226 Level Boston Center
Tue 08:56:09 PM 41.9439 -72.5489 137° Southeast 221 254 4,500 -678 Descending Boston Center
Tue 08:57:09 PM 41.9064 -72.4931 132° Southeast 197 227 3,700 -744 Descending Boston Center
Tue 08:58:10 PM 41.8669 -72.4486 140° Southeast 194 223 3,000 -590 Descending Boston Center
Tue 08:59:11 PM 41.8253 -72.4903 217° Southwest 179 206 2,500 -248 Descending Boston Center
Tue 09:00:11 PM 41.8356 -72.5486 283° West 163 188 2,500  Level Boston Center

Login

Don't have an account? Register now (free) for customized features, flight alerts, and more!